Ogdensburg, Wisconsin
Current Conditions -  °F | °C
As of 5:15 PM on Thursday 27 Nov 2014 (Local Time) from KPCZ Reporting Station
Clear Clear  
Wind Chill:   Ceiling: Unl
Heat Index: 13°   Visibility: 10mi
Dew Point:   Wind: 6mph
Humidity: 69%   Direction: 270°W
Pressure: 30.39"   Gusts: NA
Location:  44.45°N, 89.03°W
Report Text: KPCZ 272315Z AUTO 27005KT 10SM CLR M11/M15 A3039 RMK AO2 T11061153
Loading
Personal Weather Stations






























Interactive Weather Map New forecast layout! Learn more

10-Day Weather Forecast

Advertisements
Track Severe Weather on mobile